createdAt,value
2018-09-13T00:01:03.626Z,8.10
2018-09-13T00:03:37.953Z,8.57
2018-09-13T00:06:12.291Z,9.83
2018-09-13T00:08:46.730Z,9.20
2018-09-13T00:11:21.101Z,9.20
2018-09-13T00:13:55.500Z,10.27
2018-09-13T00:16:29.827Z,10.77
2018-09-13T00:19:04.217Z,9.13
2018-09-13T00:21:38.540Z,10.13
2018-09-13T00:24:12.858Z,9.43
2018-09-13T00:26:47.178Z,8.83
2018-09-13T00:29:21.489Z,9.57
2018-09-13T00:31:55.855Z,9.10
2018-09-13T00:34:30.306Z,9.30
2018-09-13T00:37:04.737Z,9.20
2018-09-13T00:39:39.122Z,10.63
2018-09-13T00:42:13.465Z,9.10
2018-09-13T00:44:47.844Z,9.50
2018-09-13T00:47:22.178Z,9.37
2018-09-13T00:49:56.512Z,9.53
2018-09-13T00:52:30.877Z,8.50
2018-09-13T00:55:05.181Z,10.87
2018-09-13T00:57:39.629Z,9.07
2018-09-13T01:00:13.979Z,9.30
2018-09-13T01:02:48.332Z,10.33
2018-09-13T01:05:22.733Z,10.33
2018-09-13T01:07:57.070Z,9.73
2018-09-13T01:10:31.423Z,12.00
2018-09-13T01:13:05.939Z,9.20
2018-09-13T01:15:40.298Z,9.40
2018-09-13T01:18:14.646Z,11.13
2018-09-13T01:20:49.045Z,10.17
2018-09-13T01:23:23.402Z,11.17
2018-09-13T01:25:57.869Z,10.33
2018-09-13T01:28:32.205Z,10.00
2018-09-13T01:31:06.562Z,13.83
2018-09-13T01:33:40.896Z,9.80
2018-09-13T01:36:15.270Z,9.23
2018-09-13T01:38:49.642Z,10.53
2018-09-13T01:41:24.107Z,11.23
2018-09-13T01:43:58.491Z,10.40
2018-09-13T01:46:33.434Z,10.37
2018-09-13T01:49:07.809Z,8.97
2018-09-13T01:51:42.092Z,8.80
2018-09-13T01:54:16.465Z,10.00
2018-09-13T01:56:51.224Z,9.77
2018-09-13T01:59:25.570Z,9.63
2018-09-13T02:02:00.037Z,9.57
2018-09-13T02:04:34.445Z,9.30
2018-09-13T02:07:08.873Z,9.40
2018-09-13T02:09:43.206Z,9.40
2018-09-13T02:12:17.564Z,10.60
2018-09-13T02:14:52.257Z,9.43
2018-09-13T02:17:26.605Z,10.23
2018-09-13T02:20:00.946Z,10.30
2018-09-13T02:22:35.336Z,9.83
2018-09-13T02:25:09.661Z,12.57
2018-09-13T02:27:44.029Z,10.63
2018-09-13T02:30:18.398Z,9.93
2018-09-13T02:32:53.217Z,9.37
2018-09-13T02:35:27.577Z,12.07
2018-09-13T02:38:02.125Z,9.37
2018-09-13T02:40:36.485Z,9.57
2018-09-13T02:43:10.866Z,12.30
2018-09-13T02:45:45.201Z,12.90
2018-09-13T02:48:19.529Z,9.70
2018-09-13T02:50:54.674Z,9.77
2018-09-13T02:53:29.033Z,11.33
2018-09-13T02:56:03.725Z,10.30
2018-09-13T02:58:38.083Z,11.33
2018-09-13T03:01:12.469Z,12.30
2018-09-13T03:03:46.845Z,10.23
2018-09-13T03:06:21.176Z,10.13
2018-09-13T03:08:55.520Z,12.63
2018-09-13T03:11:29.881Z,9.80
2018-09-13T03:14:04.275Z,10.60
2018-09-13T03:16:39.331Z,10.27
2018-09-13T03:19:13.682Z,10.73
2018-09-13T03:21:48.043Z,10.23
2018-09-13T03:24:22.397Z,10.27
2018-09-13T03:26:57.785Z,11.07
2018-09-13T03:29:32.277Z,10.87
2018-09-13T03:32:06.589Z,11.13
2018-09-13T03:34:44.979Z,10.80
2018-09-13T03:37:20.897Z,10.63
2018-09-13T03:39:55.272Z,11.13
2018-09-13T03:42:29.607Z,10.20
2018-09-13T03:45:04.023Z,12.90
2018-09-13T03:47:38.394Z,10.60
2018-09-13T03:50:12.884Z,11.50
2018-09-13T03:52:47.286Z,14.23
2018-09-13T03:55:21.621Z,10.00
2018-09-13T03:57:55.946Z,11.50
2018-09-13T04:00:30.292Z,11.23
2018-09-13T04:03:04.647Z,10.07
2018-09-13T04:05:39.053Z,10.53
2018-09-13T04:08:13.527Z,10.13
2018-09-13T04:10:47.825Z,9.83
2018-09-13T04:13:22.210Z,10.50
2018-09-13T04:15:56.523Z,10.37
2018-09-13T04:18:30.870Z,9.37
2018-09-13T04:21:05.295Z,10.60
2018-09-13T04:23:39.609Z,11.27
2018-09-13T04:26:13.937Z,10.37
2018-09-13T04:28:48.890Z,10.40
2018-09-13T04:31:23.314Z,10.30
2018-09-13T04:33:57.631Z,11.53
2018-09-13T04:36:31.969Z,11.77
2018-09-13T04:39:08.008Z,10.97
2018-09-13T04:41:42.329Z,10.20
2018-09-13T04:44:16.630Z,10.67
2018-09-13T04:46:51.004Z,10.47
2018-09-13T04:49:25.341Z,10.43
2018-09-13T04:51:59.677Z,10.20
2018-09-13T04:54:34.027Z,10.53
2018-09-13T04:57:08.382Z,10.00
2018-09-13T04:59:42.714Z,10.17
2018-09-13T05:02:17.087Z,10.53
2018-09-13T05:04:51.430Z,10.03
2018-09-13T05:07:25.763Z,11.00
2018-09-13T05:10:00.117Z,10.47
2018-09-13T05:12:34.475Z,10.43
2018-09-13T05:15:08.822Z,10.57
2018-09-13T05:17:43.150Z,10.37
2018-09-13T05:20:23.931Z,12.57
2018-09-13T05:22:58.303Z,12.50
2018-09-13T05:25:32.779Z,10.47
2018-09-13T05:28:07.227Z,10.40
2018-09-13T05:30:41.659Z,13.50
2018-09-13T05:33:16.128Z,12.13
2018-09-13T05:35:50.679Z,10.57
2018-09-13T05:38:26.123Z,10.70
2018-09-13T05:41:00.854Z,10.20
2018-09-13T05:43:35.234Z,10.33
2018-09-13T05:46:09.567Z,10.00
2018-09-13T05:48:43.887Z,11.13
2018-09-13T05:51:18.237Z,10.60
2018-09-13T05:53:53.605Z,10.97
2018-09-13T05:56:28.141Z,11.13
2018-09-13T05:59:02.744Z,10.90
2018-09-13T06:01:37.439Z,10.20
2018-09-13T06:04:12.126Z,10.20
2018-09-13T06:06:46.718Z,10.60
2018-09-13T06:09:21.278Z,11.10
2018-09-13T06:11:56.825Z,10.33
2018-09-13T06:14:31.323Z,9.50
2018-09-13T06:17:06.149Z,10.83
2018-09-13T06:19:41.574Z,10.97
2018-09-13T06:22:16.226Z,10.70
2018-09-13T06:24:50.827Z,11.03
2018-09-13T06:27:25.365Z,11.57
2018-09-13T06:30:00.312Z,10.80
2018-09-13T06:32:34.702Z,11.07
2018-09-13T06:35:09.141Z,12.60
2018-09-13T06:37:43.797Z,10.67
2018-09-13T06:40:18.233Z,11.10
2018-09-13T06:42:54.634Z,11.40
2018-09-13T06:45:29.031Z,11.00
2018-09-13T06:48:03.342Z,10.80
2018-09-13T06:50:37.656Z,9.83
2018-09-13T06:53:12.388Z,12.43
2018-09-13T06:55:46.807Z,11.53
2018-09-13T06:58:21.170Z,10.97
2018-09-13T07:00:55.565Z,10.37
2018-09-13T07:03:29.877Z,11.50
2018-09-13T07:06:04.205Z,10.00
2018-09-13T07:08:38.602Z,10.07
2018-09-13T07:11:12.937Z,9.50
2018-09-13T07:13:47.466Z,11.90
2018-09-13T07:16:21.774Z,10.57
2018-09-13T07:18:56.098Z,9.77
2018-09-13T07:21:30.442Z,10.93
2018-09-13T07:24:05.145Z,11.97
2018-09-13T07:26:39.480Z,9.80
2018-09-13T07:29:13.861Z,10.37
2018-09-13T07:31:48.198Z,10.03
2018-09-13T07:34:22.497Z,11.73
2018-09-13T07:36:56.808Z,10.00
2018-09-13T07:39:31.230Z,9.83
2018-09-13T07:42:05.641Z,10.20
2018-09-13T07:44:40.059Z,11.00
2018-09-13T07:47:14.422Z,10.60
2018-09-13T07:49:49.031Z,10.20
2018-09-13T07:52:23.287Z,9.63
2018-09-13T07:54:57.849Z,9.60
2018-09-13T07:57:33.714Z,10.00
2018-09-13T08:00:08.342Z,10.03
2018-09-13T08:02:42.666Z,9.00
2018-09-13T08:05:17.036Z,11.93
2018-09-13T08:07:52.309Z,11.07
2018-09-13T08:10:27.306Z,10.55
2018-09-13T08:13:01.695Z,11.22
2018-09-13T08:15:37.047Z,11.40
2018-09-13T08:18:12.981Z,10.07
2018-09-13T08:20:48.089Z,9.25
2018-09-13T08:23:22.445Z,11.93
2018-09-13T08:25:56.967Z,9.73
2018-09-13T08:28:31.321Z,10.23
2018-09-13T08:31:05.613Z,10.15
2018-09-13T08:33:40.007Z,9.73
2018-09-13T08:36:15.233Z,9.55
2018-09-13T08:38:49.565Z,10.43
2018-09-13T08:41:25.773Z,8.55
2018-09-13T08:44:00.820Z,9.43
2018-09-13T08:46:35.930Z,9.38
2018-09-13T08:49:11.702Z,9.83
2018-09-13T08:51:49.341Z,9.55
2018-09-13T08:54:23.689Z,8.63
2018-09-13T08:56:59.094Z,8.85
2018-09-13T08:59:34.477Z,9.28
2018-09-13T09:02:09.022Z,9.38
2018-09-13T09:04:45.046Z,10.88
2018-09-13T09:07:19.752Z,10.48
2018-09-13T09:09:54.130Z,10.05
2018-09-13T09:12:28.500Z,9.88
2018-09-13T09:15:02.826Z,9.85
2018-09-13T09:17:37.141Z,12.28
2018-09-13T09:20:11.437Z,9.55
2018-09-13T09:22:45.738Z,9.60
2018-09-13T09:25:20.042Z,9.70
2018-09-13T09:27:54.366Z,9.98
2018-09-13T09:30:28.726Z,10.32
2018-09-13T09:33:03.075Z,9.83
2018-09-13T09:35:37.402Z,9.23
2018-09-13T09:38:11.707Z,9.63
2018-09-13T09:40:46.097Z,10.43
2018-09-13T09:43:20.449Z,9.55
2018-09-13T09:45:54.766Z,8.50
2018-09-13T09:48:29.037Z,8.93
2018-09-13T09:51:03.375Z,8.40
2018-09-13T09:53:37.990Z,11.95
2018-09-13T09:56:12.311Z,9.90
2018-09-13T09:58:46.618Z,10.00
2018-09-13T10:01:26.966Z,10.03
2018-09-13T10:04:01.429Z,9.90
2018-09-13T10:06:35.722Z,9.93
2018-09-13T10:09:10.222Z,9.60
2018-09-13T10:11:44.468Z,8.83
2018-09-13T10:14:18.881Z,8.33
2018-09-13T10:16:58.435Z,8.48
2018-09-13T10:19:37.906Z,8.83
2018-09-13T10:22:17.333Z,7.53
2018-09-13T10:24:56.825Z,8.18
2018-09-13T10:27:36.265Z,8.03
2018-09-13T10:30:15.668Z,9.40
2018-09-13T10:32:55.229Z,9.25
2018-09-13T10:35:34.710Z,9.23
2018-09-13T10:38:14.256Z,8.03
2018-09-13T10:40:53.723Z,8.30
2018-09-13T10:43:33.176Z,8.00
2018-09-13T10:46:40.306Z,9.63
2018-09-13T10:49:19.746Z,8.33
2018-09-13T10:52:03.134Z,9.40
2018-09-13T10:54:41.448Z,8.80
2018-09-13T10:57:21.075Z,9.05
2018-09-13T10:59:55.357Z,10.43
2018-09-13T11:02:29.745Z,10.72
2018-09-13T11:05:04.102Z,9.30
2018-09-13T11:07:38.434Z,8.68
2018-09-13T11:10:12.879Z,10.10
2018-09-13T11:12:50.399Z,8.58
2018-09-13T11:15:33.830Z,8.50
2018-09-13T11:18:08.256Z,8.83
2018-09-13T11:20:42.575Z,9.43
2018-09-13T11:23:17.062Z,9.68
2018-09-13T11:25:51.487Z,9.03
2018-09-13T11:28:25.834Z,8.45
2018-09-13T11:31:02.528Z,8.40
2018-09-13T11:33:36.904Z,7.75
2018-09-13T11:36:11.298Z,9.38
2018-09-13T11:38:45.954Z,8.83
2018-09-13T11:41:20.330Z,9.35
2018-09-13T11:43:54.824Z,10.18
2018-09-13T11:46:29.162Z,8.50
2018-09-13T11:49:03.520Z,12.37
2018-09-13T11:51:37.907Z,8.73
2018-09-13T11:54:12.206Z,9.15
2018-09-13T11:56:46.489Z,8.83
2018-09-13T11:59:21.109Z,8.00
2018-09-13T12:01:55.430Z,8.80
2018-09-13T12:04:29.686Z,7.92
2018-09-13T12:07:04.069Z,7.42
2018-09-13T12:09:38.452Z,12.68
2018-09-13T12:12:12.711Z,8.80
2018-09-13T12:14:47.050Z,7.37
2018-09-13T12:17:21.348Z,7.67
2018-09-13T12:19:55.607Z,7.20
2018-09-13T12:22:30.026Z,7.55
2018-09-13T12:25:04.316Z,8.15
2018-09-13T12:27:38.660Z,8.03
2018-09-13T12:30:12.923Z,8.63
2018-09-13T12:32:47.246Z,9.10
2018-09-13T12:35:21.535Z,8.80
2018-09-13T12:37:55.841Z,8.38
2018-09-13T12:40:30.166Z,10.08
2018-09-13T12:43:04.498Z,9.53
2018-09-13T12:45:38.853Z,8.30
2018-09-13T12:48:13.122Z,7.62
2018-09-13T12:50:47.478Z,8.30
2018-09-13T12:53:21.786Z,8.83
2018-09-13T12:55:56.638Z,7.40
2018-09-13T12:58:30.986Z,8.35
2018-09-13T13:01:05.330Z,9.48
2018-09-13T13:03:39.684Z,9.25
2018-09-13T13:06:14.075Z,7.80
2018-09-13T13:08:48.469Z,8.70
2018-09-13T13:11:22.773Z,7.87
2018-09-13T13:13:57.114Z,9.90
2018-09-13T13:16:31.474Z,9.80
2018-09-13T13:19:05.850Z,7.95
2018-09-13T13:21:40.781Z,9.20
2018-09-13T13:24:15.085Z,8.40
2018-09-13T13:26:50.347Z,8.40
2018-09-13T13:29:24.658Z,8.65
2018-09-13T13:31:58.964Z,7.40
2018-09-13T13:34:33.303Z,7.83
2018-09-13T13:37:07.646Z,8.10
2018-09-13T13:39:41.938Z,8.20
2018-09-13T13:42:16.358Z,9.05
2018-09-13T13:44:50.682Z,8.33
2018-09-13T13:47:24.996Z,8.45
2018-09-13T13:49:59.387Z,8.58
2018-09-13T13:52:33.710Z,9.00
2018-09-13T13:55:08.047Z,8.08
2018-09-13T13:57:42.427Z,7.40
2018-09-13T14:00:16.760Z,8.85
2018-09-13T14:02:51.041Z,7.80
2018-09-13T14:05:25.379Z,7.92
2018-09-13T14:07:59.722Z,8.63
2018-09-13T14:10:34.040Z,8.93
2018-09-13T14:13:08.403Z,9.78
2018-09-13T14:15:42.758Z,8.05
2018-09-13T14:18:17.138Z,11.00
2018-09-13T14:20:51.516Z,10.58
2018-09-13T14:23:25.800Z,9.70
2018-09-13T14:26:00.094Z,9.33
2018-09-13T14:28:34.405Z,9.88
2018-09-13T14:31:08.712Z,10.43
2018-09-13T14:33:43.037Z,10.05
2018-09-13T14:36:17.437Z,11.63
2018-09-13T14:38:51.730Z,11.80
2018-09-13T14:41:26.111Z,14.03
2018-09-13T14:44:00.495Z,10.05
2018-09-13T14:46:35.472Z,10.55
2018-09-13T14:49:09.770Z,11.73
2018-09-13T14:51:44.066Z,10.38
2018-09-13T14:54:18.387Z,10.78
2018-09-13T14:56:52.743Z,11.25
2018-09-13T14:59:27.167Z,10.35
2018-09-13T15:02:01.487Z,10.60
2018-09-13T15:04:35.927Z,9.98
2018-09-13T15:07:10.287Z,9.95
2018-09-13T15:09:44.561Z,10.08
2018-09-13T15:12:18.894Z,12.25
2018-09-13T15:14:53.255Z,10.20
2018-09-13T15:17:27.610Z,8.98
2018-09-13T15:20:01.874Z,9.15
2018-09-13T15:22:36.214Z,8.63
2018-09-13T15:25:10.531Z,9.60
2018-09-13T15:27:44.894Z,8.63
2018-09-13T15:30:19.219Z,9.13
2018-09-13T15:32:53.494Z,9.08
2018-09-13T15:35:27.853Z,8.68
2018-09-13T15:38:02.182Z,7.78
2018-09-13T15:40:36.482Z,8.33
2018-09-13T15:43:10.808Z,8.58
2018-09-13T15:45:45.107Z,7.95
2018-09-13T15:48:19.357Z,8.33
2018-09-13T15:50:53.677Z,7.62
2018-09-13T15:53:28.047Z,7.95
2018-09-13T15:56:02.357Z,9.60
2018-09-13T15:58:36.754Z,9.25
2018-09-13T16:01:11.102Z,8.75
2018-09-13T16:03:45.441Z,8.68
2018-09-13T16:06:19.816Z,11.03
2018-09-13T16:08:54.167Z,8.25
2018-09-13T16:11:28.479Z,8.23
2018-09-13T16:14:02.796Z,7.70
2018-09-13T16:16:37.108Z,10.08
2018-09-13T16:19:11.405Z,11.12
2018-09-13T16:21:46.194Z,8.68
2018-09-13T16:24:20.566Z,8.13
2018-09-13T16:26:54.932Z,8.08
2018-09-13T16:29:29.349Z,8.73
2018-09-13T16:32:03.924Z,9.15
2018-09-13T16:34:38.254Z,8.85
2018-09-13T16:37:12.845Z,9.05
2018-09-13T16:39:52.431Z,11.12
2018-09-13T16:42:37.314Z,9.68
2018-09-13T16:45:12.186Z,11.73
2018-09-13T16:47:51.830Z,13.40
2018-09-13T16:50:26.126Z,9.13
2018-09-13T16:53:00.590Z,11.57
2018-09-13T16:55:34.861Z,10.93
2018-09-13T16:58:09.111Z,9.85
2018-09-13T17:00:43.526Z,10.93
2018-09-13T17:03:17.843Z,9.78
2018-09-13T17:05:52.202Z,8.85
2018-09-13T17:08:29.731Z,7.75
2018-09-13T17:11:04.037Z,7.92
2018-09-13T17:13:38.474Z,8.25
2018-09-13T17:16:12.782Z,7.80
2018-09-13T17:18:47.118Z,8.13
2018-09-13T17:21:21.413Z,8.28
2018-09-13T17:23:55.725Z,7.83
2018-09-13T17:26:30.151Z,8.33
2018-09-13T17:29:04.490Z,8.28
2018-09-13T17:31:38.898Z,9.53
2018-09-13T17:34:13.174Z,8.63
2018-09-13T17:36:48.006Z,7.87
2018-09-13T17:39:22.390Z,8.20
2018-09-13T17:41:56.730Z,8.73
2018-09-13T17:44:31.060Z,8.40
2018-09-13T17:47:05.362Z,7.70
2018-09-13T17:49:39.903Z,9.70
2018-09-13T17:52:14.262Z,8.18
2018-09-13T17:54:48.546Z,8.85
2018-09-13T17:57:22.882Z,8.58
2018-09-13T17:59:57.232Z,7.80
2018-09-13T18:02:31.502Z,8.35
2018-09-13T18:05:06.858Z,8.98
2018-09-13T18:07:41.155Z,9.38
2018-09-13T18:10:15.482Z,9.15
2018-09-13T18:12:49.847Z,11.35
2018-09-13T18:15:28.931Z,12.35
2018-09-13T18:18:03.400Z,9.58
2018-09-13T18:20:37.724Z,11.97
2018-09-13T18:23:12.102Z,10.00
2018-09-13T18:25:46.567Z,9.40
2018-09-13T18:28:20.991Z,9.55
2018-09-13T18:33:59.034Z,9.50
2018-09-13T18:36:33.409Z,9.90
2018-09-13T18:39:09.343Z,9.47
2018-09-13T18:41:43.711Z,10.40
2018-09-13T18:44:18.137Z,11.75
2018-09-13T18:46:52.482Z,8.73
2018-09-13T18:49:26.854Z,8.87
2018-09-13T18:52:01.250Z,8.53
2018-09-13T18:54:35.782Z,8.53
2018-09-13T18:57:10.226Z,8.38
2018-09-13T18:59:44.619Z,9.05
2018-09-13T19:02:19.004Z,8.40
2018-09-13T19:04:53.401Z,10.43
2018-09-13T19:07:27.742Z,9.97
2018-09-13T19:10:02.206Z,12.47
2018-09-13T19:12:36.570Z,10.93
2018-09-13T19:15:11.006Z,11.03
2018-09-13T19:17:45.389Z,12.57
2018-09-13T19:20:19.737Z,12.93
2018-09-13T19:22:54.166Z,12.93
2018-09-13T19:25:28.662Z,10.57
2018-09-13T19:28:03.055Z,10.70
2018-09-13T19:30:37.386Z,11.83
2018-09-13T19:33:11.789Z,12.33
2018-09-13T19:35:46.174Z,15.90
2018-09-13T19:38:20.525Z,11.67
2018-09-13T19:40:54.879Z,12.97
2018-09-13T19:43:29.241Z,12.40
2018-09-13T19:46:03.642Z,11.07
2018-09-13T19:48:38.034Z,13.00
2018-09-13T19:51:12.427Z,14.07
2018-09-13T19:53:46.735Z,12.37
2018-09-13T19:56:21.127Z,14.20
2018-09-13T19:58:55.638Z,11.57
2018-09-13T20:01:29.999Z,12.23
2018-09-13T20:04:04.395Z,11.27
2018-09-13T20:06:38.756Z,13.40
2018-09-13T20:09:13.276Z,11.77
2018-09-13T20:11:47.664Z,12.50
2018-09-13T20:14:22.110Z,12.30
2018-09-13T20:16:56.542Z,11.70
2018-09-13T20:19:30.935Z,11.97
2018-09-13T20:22:05.439Z,14.43
2018-09-13T20:24:39.864Z,15.60
2018-09-13T20:27:14.393Z,15.10
2018-09-13T20:29:48.740Z,14.17
2018-09-13T20:32:23.169Z,11.93
2018-09-13T20:34:57.622Z,12.43
2018-09-13T20:37:31.972Z,10.70
2018-09-13T20:40:06.495Z,10.57
2018-09-13T20:42:40.863Z,12.33
2018-09-13T20:45:15.228Z,10.53
2018-09-13T20:47:49.606Z,12.00
2018-09-13T20:50:23.980Z,13.63
2018-09-13T20:52:58.417Z,10.90
2018-09-13T20:55:32.903Z,11.67
2018-09-13T20:58:07.328Z,10.93
2018-09-13T21:00:41.737Z,10.67
2018-09-13T21:03:16.091Z,10.53
2018-09-13T21:05:50.421Z,12.23
2018-09-13T21:08:24.820Z,10.07
2018-09-13T21:10:59.184Z,10.33
2018-09-13T21:13:33.592Z,10.43
2018-09-13T21:16:08.015Z,13.20
2018-09-13T21:18:42.422Z,10.43
2018-09-13T21:21:16.788Z,10.53
2018-09-13T21:23:51.152Z,12.00
2018-09-13T21:26:25.525Z,10.60
2018-09-13T21:28:59.875Z,11.03
2018-09-13T21:31:34.272Z,11.53
2018-09-13T21:34:08.642Z,9.20
2018-09-13T21:36:43.020Z,13.13
2018-09-13T21:39:17.522Z,11.13
2018-09-13T21:41:51.895Z,10.20
2018-09-13T21:44:26.374Z,10.33
2018-09-13T21:47:00.690Z,9.97
2018-09-13T21:49:35.166Z,10.87
2018-09-13T21:52:09.517Z,11.80
2018-09-13T21:54:43.831Z,10.47
2018-09-13T21:57:18.180Z,9.97
2018-09-13T21:59:52.549Z,10.03
2018-09-13T22:02:26.925Z,12.33
2018-09-13T22:05:01.310Z,10.33
2018-09-13T22:07:36.086Z,14.97
2018-09-13T22:10:10.442Z,11.10
2018-09-13T22:12:44.786Z,11.27
2018-09-13T22:15:19.177Z,11.13
2018-09-13T22:17:53.511Z,9.90
2018-09-13T22:20:27.918Z,12.33
2018-09-13T22:23:02.290Z,13.13
2018-09-13T22:25:36.673Z,10.53
2018-09-13T22:28:11.018Z,13.10
2018-09-13T22:30:45.388Z,12.37
2018-09-13T22:33:19.758Z,12.13
2018-09-13T22:35:54.129Z,9.60
2018-09-13T22:38:28.509Z,10.33
2018-09-13T22:41:02.846Z,9.50
2018-09-13T22:43:42.441Z,10.83
2018-09-13T22:46:16.762Z,9.87
2018-09-13T22:48:51.117Z,8.47
2018-09-13T22:51:25.827Z,8.33
2018-09-13T22:54:00.162Z,11.27
2018-09-13T22:56:34.518Z,7.63
2018-09-13T22:59:08.841Z,7.63
2018-09-13T23:01:43.231Z,7.63
2018-09-13T23:04:17.563Z,7.43
2018-09-13T23:06:52.126Z,6.53
2018-09-13T23:09:26.516Z,6.83
2018-09-13T23:12:00.849Z,7.93
2018-09-13T23:14:35.186Z,10.80
2018-09-13T23:17:09.544Z,9.00
2018-09-13T23:19:43.896Z,8.00
2018-09-13T23:22:18.229Z,8.30
2018-09-13T23:24:52.571Z,8.63
2018-09-13T23:27:26.941Z,8.17
2018-09-13T23:30:01.370Z,9.63
2018-09-13T23:32:35.714Z,9.23
2018-09-13T23:35:10.078Z,9.17
2018-09-13T23:37:44.414Z,9.33
2018-09-13T23:40:19.068Z,9.07
2018-09-13T23:42:53.330Z,9.90
2018-09-13T23:45:28.102Z,8.43
2018-09-13T23:48:02.435Z,8.30
2018-09-13T23:50:36.774Z,7.73
2018-09-13T23:53:11.562Z,7.93
2018-09-13T23:55:45.940Z,7.40
2018-09-13T23:58:20.298Z,8.07
